sensor_id;sensor_type;location;lat;lon;timestamp;P1;durP1;ratioP1;P2;durP2;ratioP2
32786;SDS011;19139;49.372;8.580;2023-05-02T00:02:23;2.27;;;2.07;;
32786;SDS011;19139;49.372;8.580;2023-05-02T00:04:50;2.10;;;1.90;;
32786;SDS011;19139;49.372;8.580;2023-05-02T00:07:17;2.30;;;2.10;;
32786;SDS011;19139;49.372;8.580;2023-05-02T00:09:46;2.80;;;2.27;;
32786;SDS011;19139;49.372;8.580;2023-05-02T00:12:13;2.37;;;2.17;;
32786;SDS011;19139;49.372;8.580;2023-05-02T00:14:39;3.30;;;2.13;;
32786;SDS011;19139;49.372;8.580;2023-05-02T00:17:06;2.30;;;2.10;;
32786;SDS011;19139;49.372;8.580;2023-05-02T00:19:36;2.20;;;2.07;;
32786;SDS011;19139;49.372;8.580;2023-05-02T00:22:05;2.53;;;2.33;;
32786;SDS011;19139;49.372;8.580;2023-05-02T00:24:31;2.67;;;2.20;;
32786;SDS011;19139;49.372;8.580;2023-05-02T00:26:59;2.00;;;1.80;;
32786;SDS011;19139;49.372;8.580;2023-05-02T00:29:26;2.50;;;2.30;;
32786;SDS011;19139;49.372;8.580;2023-05-02T00:31:57;2.43;;;2.17;;
32786;SDS011;19139;49.372;8.580;2023-05-02T00:34:29;1.93;;;1.73;;
32786;SDS011;19139;49.372;8.580;2023-05-02T00:37:01;3.33;;;2.80;;
32786;SDS011;19139;49.372;8.580;2023-05-02T00:39:33;2.40;;;2.20;;
32786;SDS011;19139;49.372;8.580;2023-05-02T00:42:00;2.33;;;2.13;;
32786;SDS011;19139;49.372;8.580;2023-05-02T00:44:27;2.10;;;2.00;;
32786;SDS011;19139;49.372;8.580;2023-05-02T00:46:54;2.10;;;2.00;;
32786;SDS011;19139;49.372;8.580;2023-05-02T00:49:22;2.93;;;1.90;;
32786;SDS011;19139;49.372;8.580;2023-05-02T00:51:48;3.30;;;2.20;;
32786;SDS011;19139;49.372;8.580;2023-05-02T00:54:15;2.13;;;1.93;;
32786;SDS011;19139;49.372;8.580;2023-05-02T00:56:42;2.37;;;2.17;;
32786;SDS011;19139;49.372;8.580;2023-05-02T00:59:09;1.97;;;1.80;;
32786;SDS011;19139;49.372;8.580;2023-05-02T01:04:27;2.30;;;2.10;;
32786;SDS011;19139;49.372;8.580;2023-05-02T01:10:01;2.17;;;1.97;;
32786;SDS011;19139;49.372;8.580;2023-05-02T01:12:44;2.00;;;1.80;;
32786;SDS011;19139;49.372;8.580;2023-05-02T01:15:18;1.67;;;1.57;;
32786;SDS011;19139;49.372;8.580;2023-05-02T01:17:47;2.43;;;2.23;;
32786;SDS011;19139;49.372;8.580;2023-05-02T01:20:22;2.10;;;1.90;;
32786;SDS011;19139;49.372;8.580;2023-05-02T01:22:53;2.07;;;1.90;;
32786;SDS011;19139;49.372;8.580;2023-05-02T01:25:30;2.20;;;1.90;;
32786;SDS011;19139;49.372;8.580;2023-05-02T01:31:12;2.07;;;1.90;;
32786;SDS011;19139;49.372;8.580;2023-05-02T01:33:41;3.00;;;1.87;;
32786;SDS011;19139;49.372;8.580;2023-05-02T01:36:09;2.10;;;1.90;;
32786;SDS011;19139;49.372;8.580;2023-05-02T01:38:39;1.93;;;1.83;;
32786;SDS011;19139;49.372;8.580;2023-05-02T01:41:08;2.23;;;2.03;;
32786;SDS011;19139;49.372;8.580;2023-05-02T01:43:37;4.40;;;1.87;;
32786;SDS011;19139;49.372;8.580;2023-05-02T01:46:06;1.93;;;1.83;;
32786;SDS011;19139;49.372;8.580;2023-05-02T01:48:35;2.03;;;1.83;;
32786;SDS011;19139;49.372;8.580;2023-05-02T01:51:02;2.07;;;1.87;;
32786;SDS011;19139;49.372;8.580;2023-05-02T01:53:32;1.80;;;1.70;;
32786;SDS011;19139;49.372;8.580;2023-05-02T01:56:00;1.90;;;1.70;;
32786;SDS011;19139;49.372;8.580;2023-05-02T01:58:28;2.33;;;2.13;;
32786;SDS011;19139;49.372;8.580;2023-05-02T02:00:57;2.70;;;2.07;;
32786;SDS011;19139;49.372;8.580;2023-05-02T02:03:27;2.33;;;1.90;;
32786;SDS011;19139;49.372;8.580;2023-05-02T02:05:56;2.47;;;2.07;;
32786;SDS011;19139;49.372;8.580;2023-05-02T02:08:24;2.27;;;2.07;;
32786;SDS011;19139;49.372;8.580;2023-05-02T02:10:53;2.20;;;2.00;;
32786;SDS011;19139;49.372;8.580;2023-05-02T02:13:29;1.70;;;1.60;;
32786;SDS011;19139;49.372;8.580;2023-05-02T02:16:00;2.07;;;1.70;;
32786;SDS011;19139;49.372;8.580;2023-05-02T02:18:31;1.83;;;1.73;;
32786;SDS011;19139;49.372;8.580;2023-05-02T02:21:01;1.70;;;1.60;;
32786;SDS011;19139;49.372;8.580;2023-05-02T02:23:34;1.70;;;1.60;;
32786;SDS011;19139;49.372;8.580;2023-05-02T02:26:03;1.83;;;1.63;;
32786;SDS011;19139;49.372;8.580;2023-05-02T02:28:31;1.93;;;1.67;;
32786;SDS011;19139;49.372;8.580;2023-05-02T02:30:59;2.10;;;1.83;;
32786;SDS011;19139;49.372;8.580;2023-05-02T02:33:28;2.27;;;2.07;;
32786;SDS011;19139;49.372;8.580;2023-05-02T02:36:05;2.03;;;1.87;;
32786;SDS011;19139;49.372;8.580;2023-05-02T02:47:28;2.03;;;1.83;;
32786;SDS011;19139;49.372;8.580;2023-05-02T02:50:09;2.30;;;1.90;;
32786;SDS011;19139;49.372;8.580;2023-05-02T02:52:59;2.03;;;1.83;;
32786;SDS011;19139;49.372;8.580;2023-05-02T02:55:30;2.40;;;1.70;;
32786;SDS011;19139;49.372;8.580;2023-05-02T02:58:30;1.80;;;1.47;;
32786;SDS011;19139;49.372;8.580;2023-05-02T03:00:52;1.57;;;1.47;;
32786;SDS011;19139;49.372;8.580;2023-05-02T03:03:19;2.00;;;1.80;;
32786;SDS011;19139;49.372;8.580;2023-05-02T03:05:54;2.30;;;1.97;;
32786;SDS011;19139;49.372;8.580;2023-05-02T03:08:22;1.87;;;1.50;;
32786;SDS011;19139;49.372;8.580;2023-05-02T03:10:49;1.87;;;1.77;;
32786;SDS011;19139;49.372;8.580;2023-05-02T03:13:16;2.10;;;1.90;;
32786;SDS011;19139;49.372;8.580;2023-05-02T03:16:05;1.73;;;1.47;;
32786;SDS011;19139;49.372;8.580;2023-05-02T03:18:54;1.90;;;1.80;;
32786;SDS011;19139;49.372;8.580;2023-05-02T03:21:20;2.07;;;1.90;;
32786;SDS011;19139;49.372;8.580;2023-05-02T03:23:52;1.63;;;1.53;;
32786;SDS011;19139;49.372;8.580;2023-05-02T03:26:23;1.97;;;1.80;;
32786;SDS011;19139;49.372;8.580;2023-05-02T03:28:55;2.00;;;1.90;;
32786;SDS011;19139;49.372;8.580;2023-05-02T03:31:22;2.00;;;1.80;;
32786;SDS011;19139;49.372;8.580;2023-05-02T03:33:54;1.97;;;1.60;;
32786;SDS011;19139;49.372;8.580;2023-05-02T03:36:25;2.03;;;1.83;;
32786;SDS011;19139;49.372;8.580;2023-05-02T03:38:52;1.43;;;1.33;;
32786;SDS011;19139;49.372;8.580;2023-05-02T03:41:19;2.00;;;1.90;;
32786;SDS011;19139;49.372;8.580;2023-05-02T03:43:45;1.63;;;1.50;;
32786;SDS011;19139;49.372;8.580;2023-05-02T03:46:12;1.97;;;1.87;;
32786;SDS011;19139;49.372;8.580;2023-05-02T03:48:39;1.63;;;1.53;;
32786;SDS011;19139;49.372;8.580;2023-05-02T03:51:05;1.70;;;1.60;;
32786;SDS011;19139;49.372;8.580;2023-05-02T03:53:35;2.17;;;1.97;;
32786;SDS011;19139;49.372;8.580;2023-05-02T03:56:02;1.90;;;1.70;;
32786;SDS011;19139;49.372;8.580;2023-05-02T03:58:29;2.03;;;1.70;;
32786;SDS011;19139;49.372;8.580;2023-05-02T04:00:55;2.27;;;1.77;;
32786;SDS011;19139;49.372;8.580;2023-05-02T04:03:22;2.10;;;1.90;;
32786;SDS011;19139;49.372;8.580;2023-05-02T04:05:49;2.07;;;1.87;;
32786;SDS011;19139;49.372;8.580;2023-05-02T04:08:17;1.90;;;1.80;;
32786;SDS011;19139;49.372;8.580;2023-05-02T04:10:44;1.80;;;1.70;;
32786;SDS011;19139;49.372;8.580;2023-05-02T04:13:11;2.10;;;1.87;;
32786;SDS011;19139;49.372;8.580;2023-05-02T04:15:37;1.80;;;1.70;;
32786;SDS011;19139;49.372;8.580;2023-05-02T04:18:04;1.70;;;1.60;;
32786;SDS011;19139;49.372;8.580;2023-05-02T04:20:31;1.50;;;1.40;;
32786;SDS011;19139;49.372;8.580;2023-05-02T04:22:58;1.80;;;1.70;;
32786;SDS011;19139;49.372;8.580;2023-05-02T04:25:24;1.73;;;1.47;;
32786;SDS011;19139;49.372;8.580;2023-05-02T04:27:57;2.07;;;1.93;;
32786;SDS011;19139;49.372;8.580;2023-05-02T04:30:28;1.97;;;1.67;;
32786;SDS011;19139;49.372;8.580;2023-05-02T04:33:01;2.17;;;1.70;;
32786;SDS011;19139;49.372;8.580;2023-05-02T04:35:27;1.90;;;1.50;;
32786;SDS011;19139;49.372;8.580;2023-05-02T04:37:54;1.57;;;1.47;;
32786;SDS011;19139;49.372;8.580;2023-05-02T04:40:21;2.13;;;1.70;;
32786;SDS011;19139;49.372;8.580;2023-05-02T04:42:47;1.70;;;1.60;;
32786;SDS011;19139;49.372;8.580;2023-05-02T04:45:19;1.70;;;1.60;;
32786;SDS011;19139;49.372;8.580;2023-05-02T04:47:50;1.50;;;1.40;;
32786;SDS011;19139;49.372;8.580;2023-05-02T04:50:17;1.60;;;1.50;;
32786;SDS011;19139;49.372;8.580;2023-05-02T04:52:44;1.67;;;1.50;;
32786;SDS011;19139;49.372;8.580;2023-05-02T04:55:10;2.00;;;1.80;;
32786;SDS011;19139;49.372;8.580;2023-05-02T04:57:38;1.80;;;1.70;;
32786;SDS011;19139;49.372;8.580;2023-05-02T05:00:05;1.97;;;1.77;;
32786;SDS011;19139;49.372;8.580;2023-05-02T05:02:32;1.73;;;1.53;;
32786;SDS011;19139;49.372;8.580;2023-05-02T05:05:00;1.43;;;1.33;;
32786;SDS011;19139;49.372;8.580;2023-05-02T05:07:27;1.40;;;1.30;;
32786;SDS011;19139;49.372;8.580;2023-05-02T05:09:54;1.70;;;1.60;;
32786;SDS011;19139;49.372;8.580;2023-05-02T05:12:20;1.97;;;1.77;;
32786;SDS011;19139;49.372;8.580;2023-05-02T05:14:47;1.70;;;1.60;;
32786;SDS011;19139;49.372;8.580;2023-05-02T05:17:15;1.77;;;1.50;;
32786;SDS011;19139;49.372;8.580;2023-05-02T05:19:42;1.70;;;1.60;;
32786;SDS011;19139;49.372;8.580;2023-05-02T05:22:08;1.50;;;1.40;;
32786;SDS011;19139;49.372;8.580;2023-05-02T05:24:35;1.70;;;1.60;;
32786;SDS011;19139;49.372;8.580;2023-05-02T05:27:01;1.40;;;1.30;;
32786;SDS011;19139;49.372;8.580;2023-05-02T05:29:30;1.70;;;1.60;;
32786;SDS011;19139;49.372;8.580;2023-05-02T05:31:58;1.60;;;1.50;;
32786;SDS011;19139;49.372;8.580;2023-05-02T05:34:24;1.80;;;1.70;;
32786;SDS011;19139;49.372;8.580;2023-05-02T05:36:52;1.43;;;1.33;;
32786;SDS011;19139;49.372;8.580;2023-05-02T05:39:18;1.80;;;1.60;;
32786;SDS011;19139;49.372;8.580;2023-05-02T05:41:45;1.87;;;1.77;;
32786;SDS011;19139;49.372;8.580;2023-05-02T05:44:11;1.70;;;1.60;;
32786;SDS011;19139;49.372;8.580;2023-05-02T05:46:38;2.37;;;1.70;;
32786;SDS011;19139;49.372;8.580;2023-05-02T05:49:05;1.90;;;1.80;;
32786;SDS011;19139;49.372;8.580;2023-05-02T05:51:31;2.03;;;1.83;;
32786;SDS011;19139;49.372;8.580;2023-05-02T05:53:58;1.77;;;1.63;;
32786;SDS011;19139;49.372;8.580;2023-05-02T05:56:29;1.80;;;1.70;;
32786;SDS011;19139;49.372;8.580;2023-05-02T05:58:56;1.87;;;1.60;;
32786;SDS011;19139;49.372;8.580;2023-05-02T06:01:23;2.00;;;1.90;;
32786;SDS011;19139;49.372;8.580;2023-05-02T06:03:49;1.70;;;1.60;;
32786;SDS011;19139;49.372;8.580;2023-05-02T06:06:16;1.63;;;1.40;;
32786;SDS011;19139;49.372;8.580;2023-05-02T06:08:47;1.40;;;1.30;;
32786;SDS011;19139;49.372;8.580;2023-05-02T06:11:19;2.20;;;1.83;;
32786;SDS011;19139;49.372;8.580;2023-05-02T06:13:45;1.57;;;1.47;;
32786;SDS011;19139;49.372;8.580;2023-05-02T06:16:12;2.07;;;1.70;;
32786;SDS011;19139;49.372;8.580;2023-05-02T06:18:39;2.37;;;1.77;;
32786;SDS011;19139;49.372;8.580;2023-05-02T06:21:05;2.27;;;2.07;;
32786;SDS011;19139;49.372;8.580;2023-05-02T06:23:32;2.23;;;1.47;;
32786;SDS011;19139;49.372;8.580;2023-05-02T06:26:00;2.70;;;1.93;;
32786;SDS011;19139;49.372;8.580;2023-05-02T06:28:32;2.30;;;1.57;;
32786;SDS011;19139;49.372;8.580;2023-05-02T06:31:04;1.77;;;1.67;;
32786;SDS011;19139;49.372;8.580;2023-05-02T06:33:36;1.60;;;1.50;;
32786;SDS011;19139;49.372;8.580;2023-05-02T06:36:02;2.50;;;1.80;;
32786;SDS011;19139;49.372;8.580;2023-05-02T06:38:29;2.70;;;1.93;;
32786;SDS011;19139;49.372;8.580;2023-05-02T06:40:56;6.53;;;2.27;;
32786;SDS011;19139;49.372;8.580;2023-05-02T06:43:22;7.27;;;3.10;;
32786;SDS011;19139;49.372;8.580;2023-05-02T06:45:51;2.80;;;2.30;;
32786;SDS011;19139;49.372;8.580;2023-05-02T06:48:19;4.40;;;2.30;;
32786;SDS011;19139;49.372;8.580;2023-05-02T06:50:47;5.27;;;2.17;;
32786;SDS011;19139;49.372;8.580;2023-05-02T06:53:14;5.23;;;2.20;;
32786;SDS011;19139;49.372;8.580;2023-05-02T06:55:41;4.70;;;2.50;;
32786;SDS011;19139;49.372;8.580;2023-05-02T06:58:09;4.53;;;3.37;;
32786;SDS011;19139;49.372;8.580;2023-05-02T07:00:36;4.03;;;2.87;;
32786;SDS011;19139;49.372;8.580;2023-05-02T07:03:02;2.53;;;1.87;;
32786;SDS011;19139;49.372;8.580;2023-05-02T07:05:29;5.00;;;2.60;;
32786;SDS011;19139;49.372;8.580;2023-05-02T07:07:56;3.80;;;2.33;;
32786;SDS011;19139;49.372;8.580;2023-05-02T07:10:23;3.97;;;2.90;;
32786;SDS011;19139;49.372;8.580;2023-05-02T07:12:49;3.93;;;2.40;;
32786;SDS011;19139;49.372;8.580;2023-05-02T07:15:16;4.40;;;3.40;;
32786;SDS011;19139;49.372;8.580;2023-05-02T07:17:43;4.07;;;2.80;;
32786;SDS011;19139;49.372;8.580;2023-05-02T07:20:09;4.77;;;2.80;;
32786;SDS011;19139;49.372;8.580;2023-05-02T07:22:42;4.87;;;3.10;;
32786;SDS011;19139;49.372;8.580;2023-05-02T07:25:13;4.03;;;2.50;;
32786;SDS011;19139;49.372;8.580;2023-05-02T07:27:40;3.43;;;3.13;;
32786;SDS011;19139;49.372;8.580;2023-05-02T07:30:07;5.03;;;3.17;;
32786;SDS011;19139;49.372;8.580;2023-05-02T07:32:33;3.93;;;3.30;;
32786;SDS011;19139;49.372;8.580;2023-05-02T07:35:00;5.60;;;3.60;;
32786;SDS011;19139;49.372;8.580;2023-05-02T07:37:30;6.20;;;3.67;;
32786;SDS011;19139;49.372;8.580;2023-05-02T07:39:59;5.17;;;3.70;;
32786;SDS011;19139;49.372;8.580;2023-05-02T07:42:27;5.00;;;3.80;;
32786;SDS011;19139;49.372;8.580;2023-05-02T07:44:55;4.07;;;3.40;;
32786;SDS011;19139;49.372;8.580;2023-05-02T07:47:21;3.63;;;2.97;;
32786;SDS011;19139;49.372;8.580;2023-05-02T07:49:51;3.30;;;2.93;;
32786;SDS011;19139;49.372;8.580;2023-05-02T07:52:18;6.10;;;4.20;;
32786;SDS011;19139;49.372;8.580;2023-05-02T07:54:48;7.30;;;3.90;;
32786;SDS011;19139;49.372;8.580;2023-05-02T07:57:16;5.50;;;3.70;;
32786;SDS011;19139;49.372;8.580;2023-05-02T07:59:43;5.40;;;4.03;;
32786;SDS011;19139;49.372;8.580;2023-05-02T08:02:10;5.57;;;4.37;;
32786;SDS011;19139;49.372;8.580;2023-05-02T08:04:39;5.57;;;4.63;;
32786;SDS011;19139;49.372;8.580;2023-05-02T08:07:06;4.07;;;3.60;;
32786;SDS011;19139;49.372;8.580;2023-05-02T08:09:32;6.80;;;4.27;;
32786;SDS011;19139;49.372;8.580;2023-05-02T08:11:59;4.83;;;4.43;;
32786;SDS011;19139;49.372;8.580;2023-05-02T08:14:27;4.90;;;4.40;;
32786;SDS011;19139;49.372;8.580;2023-05-02T08:16:54;4.70;;;4.30;;
32786;SDS011;19139;49.372;8.580;2023-05-02T08:19:21;5.47;;;4.87;;
32786;SDS011;19139;49.372;8.580;2023-05-02T08:21:47;4.90;;;4.50;;
32786;SDS011;19139;49.372;8.580;2023-05-02T08:24:19;4.70;;;4.30;;
32786;SDS011;19139;49.372;8.580;2023-05-02T08:26:51;6.73;;;5.17;;
32786;SDS011;19139;49.372;8.580;2023-05-02T08:29:22;4.27;;;3.87;;
32786;SDS011;19139;49.372;8.580;2023-05-02T08:31:54;5.60;;;4.53;;
32786;SDS011;19139;49.372;8.580;2023-05-02T08:34:21;5.30;;;4.50;;
32786;SDS011;19139;49.372;8.580;2023-05-02T08:36:52;4.90;;;4.43;;
32786;SDS011;19139;49.372;8.580;2023-05-02T08:39:24;6.37;;;5.30;;
32786;SDS011;19139;49.372;8.580;2023-05-02T08:41:55;6.80;;;5.50;;
32786;SDS011;19139;49.372;8.580;2023-05-02T08:44:22;5.83;;;5.10;;
32786;SDS011;19139;49.372;8.580;2023-05-02T08:46:48;7.93;;;5.43;;
32786;SDS011;19139;49.372;8.580;2023-05-02T08:49:17;6.40;;;5.73;;
32786;SDS011;19139;49.372;8.580;2023-05-02T08:51:46;6.17;;;5.57;;
32786;SDS011;19139;49.372;8.580;2023-05-02T08:54:16;6.33;;;5.47;;
32786;SDS011;19139;49.372;8.580;2023-05-02T08:56:44;6.07;;;5.47;;
32786;SDS011;19139;49.372;8.580;2023-05-02T08:59:16;5.43;;;4.90;;
32786;SDS011;19139;49.372;8.580;2023-05-02T09:01:48;6.60;;;6.00;;
32786;SDS011;19139;49.372;8.580;2023-05-02T09:04:22;6.03;;;5.43;;
32786;SDS011;19139;49.372;8.580;2023-05-02T09:06:54;5.63;;;5.13;;
32786;SDS011;19139;49.372;8.580;2023-05-02T09:09:25;6.20;;;5.60;;
32786;SDS011;19139;49.372;8.580;2023-05-02T09:11:57;6.37;;;5.77;;
32786;SDS011;19139;49.372;8.580;2023-05-02T09:14:28;6.43;;;5.83;;
32786;SDS011;19139;49.372;8.580;2023-05-02T09:16:58;6.53;;;5.93;;
32786;SDS011;19139;49.372;8.580;2023-05-02T09:19:30;6.53;;;5.93;;
32786;SDS011;19139;49.372;8.580;2023-05-02T09:22:00;6.90;;;5.97;;
32786;SDS011;19139;49.372;8.580;2023-05-02T09:24:32;6.77;;;6.17;;
32786;SDS011;19139;49.372;8.580;2023-05-02T09:26:59;6.37;;;5.77;;
32786;SDS011;19139;49.372;8.580;2023-05-02T09:29:28;6.67;;;6.07;;
32786;SDS011;19139;49.372;8.580;2023-05-02T09:32:05;6.60;;;6.00;;
32786;SDS011;19139;49.372;8.580;2023-05-02T09:34:32;7.60;;;6.83;;
32786;SDS011;19139;49.372;8.580;2023-05-02T09:36:59;7.30;;;6.63;;
32786;SDS011;19139;49.372;8.580;2023-05-02T09:39:31;8.00;;;7.17;;
32786;SDS011;19139;49.372;8.580;2023-05-02T09:41:58;7.50;;;6.80;;
32786;SDS011;19139;49.372;8.580;2023-05-02T09:44:38;6.90;;;6.27;;
32786;SDS011;19139;49.372;8.580;2023-05-02T09:47:06;7.47;;;6.77;;
32786;SDS011;19139;49.372;8.580;2023-05-02T09:49:40;7.30;;;6.63;;
32786;SDS011;19139;49.372;8.580;2023-05-02T09:52:13;7.50;;;6.90;;
32786;SDS011;19139;49.372;8.580;2023-05-02T09:54:46;6.40;;;5.80;;
32786;SDS011;19139;49.372;8.580;2023-05-02T09:57:15;7.17;;;6.40;;
32786;SDS011;19139;49.372;8.580;2023-05-02T09:59:52;7.67;;;6.97;;
32786;SDS011;19139;49.372;8.580;2023-05-02T10:02:20;6.27;;;5.60;;
32786;SDS011;19139;49.372;8.580;2023-05-02T10:04:47;7.53;;;6.83;;
32786;SDS011;19139;49.372;8.580;2023-05-02T10:07:14;8.47;;;7.33;;
32786;SDS011;19139;49.372;8.580;2023-05-02T10:09:42;6.20;;;5.70;;
32786;SDS011;19139;49.372;8.580;2023-05-02T10:12:15;7.13;;;6.47;;
32786;SDS011;19139;49.372;8.580;2023-05-02T10:14:52;6.40;;;5.90;;
32786;SDS011;19139;49.372;8.580;2023-05-02T10:17:29;6.90;;;6.30;;
32786;SDS011;19139;49.372;8.580;2023-05-02T10:20:04;7.50;;;6.33;;
32786;SDS011;19139;49.372;8.580;2023-05-02T10:22:32;8.00;;;7.23;;
32786;SDS011;19139;49.372;8.580;2023-05-02T10:25:04;7.40;;;6.80;;
32786;SDS011;19139;49.372;8.580;2023-05-02T10:27:32;7.13;;;6.50;;
32786;SDS011;19139;49.372;8.580;2023-05-02T10:30:03;7.77;;;7.07;;
32786;SDS011;19139;49.372;8.580;2023-05-02T10:32:47;6.20;;;5.73;;
32786;SDS011;19139;49.372;8.580;2023-05-02T10:35:16;6.93;;;6.33;;
32786;SDS011;19139;49.372;8.580;2023-05-02T10:37:43;7.23;;;6.53;;
32786;SDS011;19139;49.372;8.580;2023-05-02T10:40:11;6.83;;;6.23;;
32786;SDS011;19139;49.372;8.580;2023-05-02T10:42:44;7.37;;;6.80;;
32786;SDS011;19139;49.372;8.580;2023-05-02T10:45:29;6.93;;;6.33;;
32786;SDS011;19139;49.372;8.580;2023-05-02T10:53:24;6.13;;;5.63;;
32786;SDS011;19139;49.372;8.580;2023-05-02T10:56:13;7.53;;;6.83;;
32786;SDS011;19139;49.372;8.580;2023-05-02T10:58:45;7.33;;;6.67;;
32786;SDS011;19139;49.372;8.580;2023-05-02T11:04:01;6.97;;;6.37;;
32786;SDS011;19139;49.372;8.580;2023-05-02T11:06:30;7.63;;;6.93;;
32786;SDS011;19139;49.372;8.580;2023-05-02T11:09:28;7.37;;;6.77;;
32786;SDS011;19139;49.372;8.580;2023-05-02T11:11:48;6.93;;;6.33;;
32786;SDS011;19139;49.372;8.580;2023-05-02T11:19:25;7.37;;;6.67;;
32786;SDS011;19139;49.372;8.580;2023-05-02T11:24:53;7.67;;;6.97;;
32786;SDS011;19139;49.372;8.580;2023-05-02T11:29:58;8.37;;;7.57;;
32786;SDS011;19139;49.372;8.580;2023-05-02T11:35:17;7.90;;;7.20;;
32786;SDS011;19139;49.372;8.580;2023-05-02T11:37:52;9.03;;;8.13;;
32786;SDS011;19139;49.372;8.580;2023-05-02T11:40:22;7.80;;;7.10;;
32786;SDS011;19139;49.372;8.580;2023-05-02T11:42:50;7.77;;;7.10;;
32786;SDS011;19139;49.372;8.580;2023-05-02T11:45:16;7.70;;;7.00;;
32786;SDS011;19139;49.372;8.580;2023-05-02T11:47:43;8.30;;;7.60;;
32786;SDS011;19139;49.372;8.580;2023-05-02T11:50:11;7.67;;;6.97;;
32786;SDS011;19139;49.372;8.580;2023-05-02T11:52:41;7.77;;;7.07;;
32786;SDS011;19139;49.372;8.580;2023-05-02T11:55:10;8.17;;;7.47;;
32786;SDS011;19139;49.372;8.580;2023-05-02T11:57:38;8.23;;;7.53;;
32786;SDS011;19139;49.372;8.580;2023-05-02T12:00:10;6.63;;;6.03;;
32786;SDS011;19139;49.372;8.580;2023-05-02T12:02:43;7.80;;;7.10;;
32786;SDS011;19139;49.372;8.580;2023-05-02T12:05:11;7.67;;;6.97;;
32786;SDS011;19139;49.372;8.580;2023-05-02T12:07:45;7.03;;;6.30;;
32786;SDS011;19139;49.372;8.580;2023-05-02T12:10:14;7.67;;;6.97;;
32786;SDS011;19139;49.372;8.580;2023-05-02T12:12:42;8.23;;;7.00;;
32786;SDS011;19139;49.372;8.580;2023-05-02T12:15:10;7.80;;;7.10;;
32786;SDS011;19139;49.372;8.580;2023-05-02T12:17:44;7.43;;;6.83;;
32786;SDS011;19139;49.372;8.580;2023-05-02T12:20:22;7.30;;;6.70;;
32786;SDS011;19139;49.372;8.580;2023-05-02T12:22:48;7.30;;;6.70;;
32786;SDS011;19139;49.372;8.580;2023-05-02T12:25:15;7.80;;;6.80;;
32786;SDS011;19139;49.372;8.580;2023-05-02T12:27:56;8.60;;;7.70;;
32786;SDS011;19139;49.372;8.580;2023-05-02T12:30:25;7.87;;;7.00;;
32786;SDS011;19139;49.372;8.580;2023-05-02T12:32:58;8.17;;;7.23;;
32786;SDS011;19139;49.372;8.580;2023-05-02T12:35:33;7.80;;;7.00;;
32786;SDS011;19139;49.372;8.580;2023-05-02T12:38:16;8.00;;;7.20;;
32786;SDS011;19139;49.372;8.580;2023-05-02T12:40:46;7.90;;;7.10;;
32786;SDS011;19139;49.372;8.580;2023-05-02T12:43:18;8.00;;;7.20;;
32786;SDS011;19139;49.372;8.580;2023-05-02T12:46:07;7.70;;;7.00;;
32786;SDS011;19139;49.372;8.580;2023-05-02T12:48:35;7.20;;;6.37;;
32786;SDS011;19139;49.372;8.580;2023-05-02T12:51:01;7.37;;;6.57;;
32786;SDS011;19139;49.372;8.580;2023-05-02T12:56:08;7.43;;;6.73;;
32786;SDS011;19139;49.372;8.580;2023-05-02T12:58:53;7.37;;;6.47;;
32786;SDS011;19139;49.372;8.580;2023-05-02T13:01:21;7.63;;;6.93;;
32786;SDS011;19139;49.372;8.580;2023-05-02T13:03:49;7.43;;;6.67;;
32786;SDS011;19139;49.372;8.580;2023-05-02T13:06:16;6.90;;;6.20;;
32786;SDS011;19139;49.372;8.580;2023-05-02T13:08:43;7.13;;;6.43;;
32786;SDS011;19139;49.372;8.580;2023-05-02T13:11:15;7.53;;;6.73;;
32786;SDS011;19139;49.372;8.580;2023-05-02T13:13:42;7.40;;;6.10;;
32786;SDS011;19139;49.372;8.580;2023-05-02T13:16:09;7.27;;;6.53;;
32786;SDS011;19139;49.372;8.580;2023-05-02T13:18:36;7.27;;;6.57;;
32786;SDS011;19139;49.372;8.580;2023-05-02T13:21:03;7.93;;;7.13;;
32786;SDS011;19139;49.372;8.580;2023-05-02T13:23:34;7.60;;;6.93;;
32786;SDS011;19139;49.372;8.580;2023-05-02T13:26:01;6.77;;;6.17;;
32786;SDS011;19139;49.372;8.580;2023-05-02T13:28:29;8.93;;;6.80;;
32786;SDS011;19139;49.372;8.580;2023-05-02T13:30:58;6.60;;;5.90;;
32786;SDS011;19139;49.372;8.580;2023-05-02T13:33:29;7.83;;;7.07;;
32786;SDS011;19139;49.372;8.580;2023-05-02T13:36:01;8.60;;;6.67;;
32786;SDS011;19139;49.372;8.580;2023-05-02T13:38:32;7.83;;;7.03;;
32786;SDS011;19139;49.372;8.580;2023-05-02T13:41:04;7.40;;;6.43;;
32786;SDS011;19139;49.372;8.580;2023-05-02T13:43:36;6.67;;;5.93;;
32786;SDS011;19139;49.372;8.580;2023-05-02T13:46:09;8.10;;;6.17;;
32786;SDS011;19139;49.372;8.580;2023-05-02T13:48:40;6.80;;;6.03;;
32786;SDS011;19139;49.372;8.580;2023-05-02T13:51:12;6.57;;;5.97;;
32786;SDS011;19139;49.372;8.580;2023-05-02T13:53:39;6.90;;;6.20;;
32786;SDS011;19139;49.372;8.580;2023-05-02T13:56:06;7.47;;;6.73;;
32786;SDS011;19139;49.372;8.580;2023-05-02T13:58:37;7.20;;;6.60;;
32786;SDS011;19139;49.372;8.580;2023-05-02T14:01:09;7.17;;;6.57;;
32786;SDS011;19139;49.372;8.580;2023-05-02T14:03:40;8.03;;;7.27;;
32786;SDS011;19139;49.372;8.580;2023-05-02T14:06:12;7.93;;;7.10;;
32786;SDS011;19139;49.372;8.580;2023-05-02T14:08:44;6.87;;;6.27;;
32786;SDS011;19139;49.372;8.580;2023-05-02T14:11:11;7.10;;;6.40;;
32786;SDS011;19139;49.372;8.580;2023-05-02T14:13:42;7.50;;;6.80;;
32786;SDS011;19139;49.372;8.580;2023-05-02T14:16:14;7.70;;;6.90;;
32786;SDS011;19139;49.372;8.580;2023-05-02T14:18:40;6.80;;;6.20;;
32786;SDS011;19139;49.372;8.580;2023-05-02T14:21:07;7.43;;;6.73;;
32786;SDS011;19139;49.372;8.580;2023-05-02T14:23:34;6.50;;;5.90;;
32786;SDS011;19139;49.372;8.580;2023-05-02T14:26:00;6.87;;;6.27;;
32786;SDS011;19139;49.372;8.580;2023-05-02T14:28:27;8.30;;;6.53;;
32786;SDS011;19139;49.372;8.580;2023-05-02T14:30:54;7.43;;;6.67;;
32786;SDS011;19139;49.372;8.580;2023-05-02T14:33:20;7.90;;;6.83;;
32786;SDS011;19139;49.372;8.580;2023-05-02T14:35:47;6.47;;;5.83;;
32786;SDS011;19139;49.372;8.580;2023-05-02T14:38:14;6.90;;;6.20;;
32786;SDS011;19139;49.372;8.580;2023-05-02T14:40:40;7.73;;;6.53;;
32786;SDS011;19139;49.372;8.580;2023-05-02T14:43:07;8.97;;;6.43;;
32786;SDS011;19139;49.372;8.580;2023-05-02T14:45:38;6.33;;;5.73;;
32786;SDS011;19139;49.372;8.580;2023-05-02T14:48:10;7.47;;;5.90;;
32786;SDS011;19139;49.372;8.580;2023-05-02T14:50:39;6.90;;;6.20;;
32786;SDS011;19139;49.372;8.580;2023-05-02T14:53:05;8.87;;;7.97;;
32786;SDS011;19139;49.372;8.580;2023-05-02T14:55:35;6.83;;;6.23;;
32786;SDS011;19139;49.372;8.580;2023-05-02T14:58:07;7.33;;;6.17;;
32786;SDS011;19139;49.372;8.580;2023-05-02T15:00:35;6.67;;;6.07;;
32786;SDS011;19139;49.372;8.580;2023-05-02T15:03:06;6.70;;;6.10;;
32786;SDS011;19139;49.372;8.580;2023-05-02T15:05:33;6.87;;;6.17;;
32786;SDS011;19139;49.372;8.580;2023-05-02T15:08:01;7.23;;;6.47;;
32786;SDS011;19139;49.372;8.580;2023-05-02T15:10:28;7.13;;;6.40;;
32786;SDS011;19139;49.372;8.580;2023-05-02T15:12:54;7.53;;;5.50;;
32786;SDS011;19139;49.372;8.580;2023-05-02T15:15:21;6.77;;;6.07;;
32786;SDS011;19139;49.372;8.580;2023-05-02T15:17:50;7.13;;;5.97;;
32786;SDS011;19139;49.372;8.580;2023-05-02T15:20:17;6.37;;;5.30;;
32786;SDS011;19139;49.372;8.580;2023-05-02T15:22:44;7.50;;;6.10;;
32786;SDS011;19139;49.372;8.580;2023-05-02T15:25:11;6.53;;;5.77;;
32786;SDS011;19139;49.372;8.580;2023-05-02T15:27:38;6.43;;;5.83;;
32786;SDS011;19139;49.372;8.580;2023-05-02T15:30:05;6.47;;;5.87;;
32786;SDS011;19139;49.372;8.580;2023-05-02T15:32:32;8.27;;;6.33;;
32786;SDS011;19139;49.372;8.580;2023-05-02T15:34:59;7.30;;;6.03;;
32786;SDS011;19139;49.372;8.580;2023-05-02T15:37:25;6.87;;;6.17;;
32786;SDS011;19139;49.372;8.580;2023-05-02T15:39:52;7.23;;;5.70;;
32786;SDS011;19139;49.372;8.580;2023-05-02T15:42:18;6.13;;;5.53;;
32786;SDS011;19139;49.372;8.580;2023-05-02T15:44:45;6.33;;;5.70;;